createdAt,value
2018-09-13T00:02:22.905Z,30.77
2018-09-13T00:04:55.764Z,32.63
2018-09-13T00:07:28.304Z,33.70
2018-09-13T00:10:02.400Z,32.97
2018-09-13T00:12:34.894Z,34.43
2018-09-13T00:15:07.845Z,33.47
2018-09-13T00:17:40.363Z,33.60
2018-09-13T00:20:12.990Z,32.87
2018-09-13T00:22:45.901Z,33.33
2018-09-13T00:25:19.340Z,33.83
2018-09-13T00:27:51.861Z,32.80
2018-09-13T00:30:24.892Z,37.10
2018-09-13T00:32:57.387Z,36.20
2018-09-13T00:35:30.188Z,36.40
2018-09-13T00:38:03.224Z,36.17
2018-09-13T00:40:35.813Z,35.93
2018-09-13T00:43:08.308Z,34.90
2018-09-13T00:45:41.131Z,34.90
2018-09-13T00:48:13.733Z,35.83
2018-09-13T00:50:46.338Z,41.17
2018-09-13T00:53:19.491Z,36.43
2018-09-13T00:55:52.111Z,32.37
2018-09-13T00:58:24.709Z,33.63
2018-09-13T01:01:00.251Z,33.43
2018-09-13T01:03:32.868Z,32.07
2018-09-13T01:06:05.590Z,29.73
2018-09-13T01:08:39.637Z,30.47
2018-09-13T01:11:12.292Z,30.43
2018-09-13T01:13:44.836Z,34.28
2018-09-13T01:16:17.836Z,27.17
2018-09-13T01:18:51.668Z,27.70
2018-09-13T01:21:26.772Z,26.13
2018-09-13T01:24:00.856Z,25.77
2018-09-13T01:26:33.464Z,26.43
2018-09-13T01:29:06.072Z,25.63
2018-09-13T01:31:40.033Z,25.40
2018-09-13T01:34:13.501Z,24.43
2018-09-13T01:36:46.264Z,31.85
2018-09-13T01:39:19.196Z,26.40
2018-09-13T01:41:51.840Z,25.53
2018-09-13T01:44:24.380Z,25.60
2018-09-13T01:46:57.572Z,26.80
2018-09-13T01:49:30.160Z,24.87
2018-09-13T01:52:03.614Z,26.07
2018-09-13T01:54:37.262Z,25.03
2018-09-13T01:57:09.844Z,24.97
2018-09-13T01:59:42.739Z,26.43
2018-09-13T02:02:15.690Z,25.67
2018-09-13T02:04:48.289Z,28.37
2018-09-13T02:07:22.904Z,27.00
2018-09-13T02:09:56.751Z,26.08
2018-09-13T02:12:29.249Z,25.50
2018-09-13T02:15:03.465Z,24.35
2018-09-13T02:17:36.450Z,21.43
2018-09-13T02:20:09.216Z,20.47
2018-09-13T02:22:41.817Z,21.83
2018-09-13T02:25:14.781Z,19.70
2018-09-13T02:27:47.355Z,21.00
2018-09-13T02:30:19.857Z,20.30
2018-09-13T02:32:52.831Z,21.00
2018-09-13T02:35:25.473Z,20.07
2018-09-13T02:37:57.988Z,18.83
2018-09-13T02:40:30.818Z,19.67
2018-09-13T02:43:03.372Z,20.27
2018-09-13T02:45:35.956Z,21.00
2018-09-13T02:48:08.847Z,21.43
2018-09-13T02:50:41.261Z,22.53
2018-09-13T02:53:13.813Z,20.97
2018-09-13T02:55:46.644Z,20.97
2018-09-13T02:58:19.299Z,22.00
2018-09-13T03:00:51.617Z,21.33
2018-09-13T03:03:24.480Z,20.67
2018-09-13T03:05:57.112Z,20.87
2018-09-13T03:08:29.692Z,20.03
2018-09-13T03:11:02.885Z,19.57
2018-09-13T03:13:35.296Z,21.13
2018-09-13T03:16:08.320Z,20.40
2018-09-13T03:18:43.066Z,20.53
2018-09-13T03:21:15.376Z,20.57
2018-09-13T03:23:48.568Z,26.10
2018-09-13T03:26:23.288Z,19.97
2018-09-13T03:28:56.650Z,20.95
2018-09-13T03:31:29.020Z,18.10
2018-09-13T03:34:02.232Z,17.87
2018-09-13T03:36:35.104Z,19.80
2018-09-13T03:39:10.683Z,19.30
2018-09-13T03:41:43.301Z,18.10
2018-09-13T03:44:15.650Z,16.60
2018-09-13T03:46:47.996Z,15.17
2018-09-13T03:49:20.612Z,16.27
2018-09-13T03:51:52.972Z,14.73
2018-09-13T03:54:25.312Z,16.47
2018-09-13T03:56:58.148Z,16.57
2018-09-13T03:59:30.868Z,17.00
2018-09-13T04:02:03.264Z,17.73
2018-09-13T04:04:35.640Z,18.13
2018-09-13T04:07:13.748Z,17.40
2018-09-13T04:09:46.173Z,17.67
2018-09-13T04:12:18.530Z,17.33
2018-09-13T04:14:51.327Z,16.80
2018-09-13T04:17:23.708Z,17.90
2018-09-13T04:19:56.087Z,16.30
2018-09-13T04:22:29.945Z,15.50
2018-09-13T04:25:03.528Z,15.93
2018-09-13T04:27:35.915Z,16.17
2018-09-13T04:30:08.689Z,16.83
2018-09-13T04:32:41.589Z,16.47
2018-09-13T04:35:14.942Z,16.93
2018-09-13T04:37:47.612Z,16.60
2018-09-13T04:40:19.994Z,17.00
2018-09-13T04:42:53.820Z,16.93
2018-09-13T04:45:26.378Z,18.13
2018-09-13T04:47:58.947Z,17.33
2018-09-13T04:50:31.712Z,17.63
2018-09-13T04:53:04.167Z,17.90
2018-09-13T04:55:36.564Z,19.20
2018-09-13T04:58:09.274Z,21.13
2018-09-13T05:00:42.424Z,22.00
2018-09-13T05:03:15.961Z,22.50
2018-09-13T05:05:50.084Z,25.07
2018-09-13T05:08:23.134Z,23.33
2018-09-13T05:10:55.576Z,26.30
2018-09-13T05:13:28.388Z,26.57
2018-09-13T05:16:00.770Z,27.00
2018-09-13T05:18:34.017Z,28.60
2018-09-13T05:21:06.777Z,28.07
2018-09-13T05:23:39.881Z,28.20
2018-09-13T05:26:12.233Z,26.33
2018-09-13T05:28:45.919Z,28.50
2018-09-13T05:31:18.837Z,26.40
2018-09-13T05:33:51.236Z,26.17
2018-09-13T05:36:23.687Z,27.20
2018-09-13T05:38:56.047Z,28.20
2018-09-13T05:41:28.407Z,29.90
2018-09-13T05:44:01.216Z,29.27
2018-09-13T05:46:35.597Z,29.50
2018-09-13T05:49:09.845Z,28.07
2018-09-13T05:51:44.611Z,29.50
2018-09-13T05:54:17.763Z,29.03
2018-09-13T05:56:50.507Z,29.47
2018-09-13T05:59:22.840Z,31.40
2018-09-13T06:01:56.630Z,32.40
2018-09-13T06:04:30.151Z,30.33
2018-09-13T06:07:04.841Z,31.87
2018-09-13T06:09:37.132Z,32.67
2018-09-13T06:12:09.509Z,33.90
2018-09-13T06:14:43.443Z,34.03
2018-09-13T06:17:16.653Z,31.70
2018-09-13T06:19:50.441Z,33.17
2018-09-13T06:22:24.276Z,31.13
2018-09-13T06:24:57.062Z,37.50
2018-09-13T06:27:29.579Z,31.77
2018-09-13T06:30:03.315Z,30.20
2018-09-13T06:32:36.045Z,29.93
2018-09-13T06:35:09.314Z,26.17
2018-09-13T06:37:42.507Z,31.17
2018-09-13T06:40:17.572Z,26.50
2018-09-13T06:42:49.975Z,25.60
2018-09-13T06:45:23.373Z,23.33
2018-09-13T06:47:56.314Z,23.80
2018-09-13T06:50:28.693Z,24.17
2018-09-13T06:53:01.136Z,23.43
2018-09-13T06:55:33.768Z,23.03
2018-09-13T06:58:06.159Z,20.93
2018-09-13T07:00:38.625Z,18.60
2018-09-13T07:03:15.538Z,17.43
2018-09-13T07:05:50.028Z,15.93
2018-09-13T07:08:23.220Z,16.13
2018-09-13T07:10:56.120Z,14.57
2018-09-13T07:13:28.594Z,14.50
2018-09-13T07:16:01.049Z,14.73
2018-09-13T07:18:34.943Z,13.87
2018-09-13T07:21:07.921Z,13.63
2018-09-13T07:23:40.494Z,15.63
2018-09-13T07:26:13.267Z,13.00
2018-09-13T07:28:45.767Z,13.33
2018-09-13T07:31:18.071Z,12.47
2018-09-13T07:33:50.925Z,12.73
2018-09-13T07:36:23.297Z,12.07
2018-09-13T07:38:58.632Z,12.83
2018-09-13T07:41:32.758Z,11.83
2018-09-13T07:44:07.535Z,10.63
2018-09-13T07:46:41.038Z,12.10
2018-09-13T07:49:15.212Z,13.13
2018-09-13T07:51:47.397Z,12.83
2018-09-13T07:54:19.833Z,12.97
2018-09-13T07:56:53.881Z,12.83
2018-09-13T07:59:26.768Z,12.37
2018-09-13T08:02:00.547Z,13.73
2018-09-13T08:04:33.544Z,13.70
2018-09-13T08:07:06.308Z,15.07
2018-09-13T08:09:38.749Z,15.37
2018-09-13T08:12:12.667Z,16.10
2018-09-13T08:14:53.656Z,17.87
2018-09-13T08:17:30.395Z,15.40
2018-09-13T08:20:05.340Z,15.00
2018-09-13T08:22:40.641Z,16.50
2018-09-13T08:25:15.148Z,15.70
2018-09-13T08:27:48.943Z,15.60
2018-09-13T08:30:22.723Z,16.60
2018-09-13T08:32:55.659Z,15.63
2018-09-13T08:35:28.688Z,15.73
2018-09-13T08:38:01.252Z,15.33
2018-09-13T08:40:33.729Z,15.70
2018-09-13T08:43:08.615Z,15.80
2018-09-13T08:45:42.761Z,16.10
2018-09-13T08:48:16.766Z,14.83
2018-09-13T08:50:54.309Z,15.07
2018-09-13T08:53:28.048Z,14.50
2018-09-13T08:56:02.280Z,16.45
2018-09-13T08:58:34.603Z,15.87
2018-09-13T09:01:16.009Z,15.87
2018-09-13T09:03:48.323Z,16.63
2018-09-13T09:06:20.740Z,16.03
2018-09-13T09:08:53.964Z,19.03
2018-09-13T09:11:28.420Z,17.83
2018-09-13T09:14:01.758Z,20.80
2018-09-13T09:16:35.809Z,19.23
2018-09-13T09:19:08.803Z,21.80
2018-09-13T09:21:42.097Z,21.57
2018-09-13T09:24:16.466Z,21.07
2018-09-13T09:26:48.879Z,21.63
2018-09-13T09:29:23.207Z,20.83
2018-09-13T09:31:57.992Z,21.33
2018-09-13T09:34:30.281Z,20.60
2018-09-13T09:37:02.757Z,22.57
2018-09-13T09:39:35.557Z,23.93
2018-09-13T09:42:10.456Z,24.80
2018-09-13T09:44:43.339Z,25.20
2018-09-13T09:47:16.162Z,22.60
2018-09-13T09:49:49.808Z,22.60
2018-09-13T09:52:24.435Z,23.33
2018-09-13T09:54:58.186Z,25.23
2018-09-13T09:57:30.632Z,22.50
2018-09-13T10:00:06.150Z,21.57
2018-09-13T10:02:39.760Z,19.23
2018-09-13T10:05:12.044Z,21.07
2018-09-13T10:07:44.416Z,19.47
2018-09-13T10:10:17.115Z,18.80
2018-09-13T10:12:49.532Z,20.53
2018-09-13T10:15:27.888Z,22.17
2018-09-13T10:18:05.770Z,22.53
2018-09-13T10:20:44.100Z,25.07
2018-09-13T10:23:21.863Z,25.35
2018-09-13T10:26:00.115Z,23.43
2018-09-13T10:28:37.987Z,23.73
2018-09-13T10:31:15.921Z,22.93
2018-09-13T10:33:54.042Z,23.30
2018-09-13T10:36:32.597Z,24.07
2018-09-13T10:39:14.365Z,23.03
2018-09-13T10:41:52.440Z,23.70
2018-09-13T10:44:30.513Z,24.43
2018-09-13T10:47:09.156Z,22.43
2018-09-13T10:49:47.028Z,24.03
2018-09-13T10:52:24.664Z,25.43
2018-09-13T10:54:58.138Z,26.63
2018-09-13T10:57:35.927Z,25.77
2018-09-13T11:00:07.597Z,26.17
2018-09-13T11:02:40.073Z,24.00
2018-09-13T11:05:12.940Z,24.47
2018-09-13T11:07:45.265Z,23.80
2018-09-13T11:10:17.789Z,24.67
2018-09-13T11:13:09.776Z,26.23
2018-09-13T11:15:54.328Z,26.27
2018-09-13T11:18:27.339Z,23.90
2018-09-13T11:21:00.544Z,22.20
2018-09-13T11:23:34.188Z,23.27
2018-09-13T11:26:07.580Z,23.90
2018-09-13T11:28:40.207Z,21.33
2018-09-13T11:31:12.892Z,20.73
2018-09-13T11:33:46.182Z,19.43
2018-09-13T11:36:23.421Z,19.07
2018-09-13T11:38:55.983Z,18.40
2018-09-13T11:41:29.601Z,15.90
2018-09-13T11:44:02.792Z,16.70
2018-09-13T11:46:37.406Z,15.67
2018-09-13T11:49:10.328Z,19.37
2018-09-13T11:51:42.951Z,18.25
2018-09-13T11:54:16.348Z,16.17
2018-09-13T11:56:50.520Z,14.90
2018-09-13T11:59:23.140Z,15.00
2018-09-13T12:01:55.717Z,15.00
2018-09-13T12:04:28.538Z,14.07
2018-09-13T12:07:01.338Z,12.70
2018-09-13T12:09:33.907Z,12.67
2018-09-13T12:12:06.531Z,13.10
2018-09-13T12:14:39.171Z,14.03
2018-09-13T12:17:11.855Z,12.60
2018-09-13T12:19:44.401Z,12.67
2018-09-13T12:22:17.510Z,14.13
2018-09-13T12:24:49.865Z,12.53
2018-09-13T12:27:22.604Z,11.37
2018-09-13T12:29:56.606Z,10.90
2018-09-13T12:32:29.293Z,10.40
2018-09-13T12:35:01.964Z,11.50
2018-09-13T12:37:35.271Z,9.80
2018-09-13T12:40:09.264Z,10.23
2018-09-13T12:42:42.244Z,8.53
2018-09-13T12:45:16.019Z,8.77
2018-09-13T12:47:48.820Z,8.83
2018-09-13T12:50:22.897Z,9.60
2018-09-13T12:52:55.708Z,8.97
2018-09-13T12:55:36.334Z,10.43
2018-09-13T12:58:09.000Z,10.57
2018-09-13T13:00:42.120Z,9.80
2018-09-13T13:03:16.888Z,10.33
2018-09-13T13:05:50.376Z,9.70
2018-09-13T13:08:24.487Z,9.00
2018-09-13T13:10:57.161Z,8.67
2018-09-13T13:13:30.026Z,8.20
2018-09-13T13:16:05.882Z,8.67
2018-09-13T13:18:40.445Z,8.70
2018-09-13T13:21:13.017Z,9.73
2018-09-13T13:23:48.238Z,10.05
2018-09-13T13:26:20.785Z,9.50
2018-09-13T13:28:53.632Z,9.83
2018-09-13T13:31:27.537Z,8.67
2018-09-13T13:34:00.157Z,8.30
2018-09-13T13:36:33.336Z,7.80
2018-09-13T13:39:10.212Z,7.13
2018-09-13T13:41:43.266Z,6.33
2018-09-13T13:44:16.293Z,6.47
2018-09-13T13:46:50.408Z,5.50
2018-09-13T13:49:23.051Z,6.67
2018-09-13T13:51:55.960Z,6.37
2018-09-13T13:54:28.560Z,5.77
2018-09-13T13:57:01.179Z,6.60
2018-09-13T13:59:34.983Z,6.40
2018-09-13T14:02:08.281Z,5.63
2018-09-13T14:04:41.092Z,6.27
2018-09-13T14:07:14.642Z,6.07
2018-09-13T14:09:47.409Z,5.10
2018-09-13T14:12:20.019Z,5.00
2018-09-13T14:14:53.224Z,6.37
2018-09-13T14:17:25.944Z,5.80
2018-09-13T14:19:58.658Z,6.20
2018-09-13T14:22:37.198Z,5.83
2018-09-13T14:25:12.322Z,6.87
2018-09-13T14:27:46.381Z,6.53
2018-09-13T14:30:19.063Z,6.30
2018-09-13T14:32:51.543Z,7.07
2018-09-13T14:35:24.589Z,7.87
2018-09-13T14:37:57.142Z,7.30
2018-09-13T14:40:30.595Z,7.27
2018-09-13T14:43:03.524Z,7.87
2018-09-13T14:45:36.548Z,7.10
2018-09-13T14:48:09.219Z,6.87
2018-09-13T14:50:41.899Z,6.17
2018-09-13T14:53:14.528Z,6.37
2018-09-13T14:55:49.113Z,5.80
2018-09-13T14:58:21.853Z,5.50
2018-09-13T15:00:54.421Z,6.60
2018-09-13T15:03:27.244Z,5.60
2018-09-13T15:05:59.988Z,6.13
2018-09-13T15:08:32.634Z,6.67
2018-09-13T15:11:05.644Z,6.85
2018-09-13T15:13:38.353Z,6.47
2018-09-13T15:16:11.349Z,7.13
2018-09-13T15:18:44.768Z,7.20
2018-09-13T15:21:17.475Z,8.20
2018-09-13T15:23:50.056Z,7.10
2018-09-13T15:26:22.736Z,8.07
2018-09-13T15:28:55.267Z,8.23
2018-09-13T15:31:28.243Z,7.53
2018-09-13T15:34:00.994Z,8.80
2018-09-13T15:36:33.689Z,9.30
2018-09-13T15:39:12.190Z,8.13
2018-09-13T15:41:44.873Z,8.40
2018-09-13T15:44:17.877Z,8.67
2018-09-13T15:46:52.516Z,9.43
2018-09-13T15:49:25.076Z,8.90
2018-09-13T15:51:57.702Z,8.07
2018-09-13T15:54:31.188Z,7.10
2018-09-13T15:57:03.836Z,8.13
2018-09-13T15:59:36.675Z,8.25
2018-09-13T16:02:11.907Z,9.23
2018-09-13T16:04:44.301Z,9.67
2018-09-13T16:07:17.267Z,9.03
2018-09-13T16:09:50.488Z,8.13
2018-09-13T16:12:23.779Z,9.17
2018-09-13T16:14:56.565Z,7.37
2018-09-13T16:17:32.073Z,8.67
2018-09-13T16:20:04.934Z,8.60
2018-09-13T16:22:37.520Z,7.73
2018-09-13T16:25:12.972Z,9.10
2018-09-13T16:27:45.613Z,7.97
2018-09-13T16:30:18.070Z,7.70
2018-09-13T16:32:51.549Z,9.20
2018-09-13T16:35:25.296Z,7.10
2018-09-13T16:38:03.650Z,6.57
2018-09-13T16:40:45.068Z,6.00
2018-09-13T16:43:37.452Z,7.47
2018-09-13T16:46:18.067Z,6.90
2018-09-13T16:48:50.723Z,7.43
2018-09-13T16:51:23.713Z,7.07
2018-09-13T16:53:57.013Z,7.17
2018-09-13T16:56:29.736Z,7.47
2018-09-13T16:59:02.832Z,6.53
2018-09-13T17:01:35.435Z,6.57
2018-09-13T17:04:09.321Z,7.30
2018-09-13T17:06:42.629Z,7.13
2018-09-13T17:09:15.446Z,7.93
2018-09-13T17:11:48.469Z,7.17
2018-09-13T17:14:22.570Z,7.97
2018-09-13T17:16:55.303Z,7.70
2018-09-13T17:19:46.336Z,7.83
2018-09-13T17:22:20.649Z,8.60
2018-09-13T17:27:27.722Z,8.50
2018-09-13T17:30:03.006Z,7.57
2018-09-13T17:32:35.903Z,8.65
2018-09-13T17:35:09.166Z,8.60
2018-09-13T17:37:41.888Z,9.60
2018-09-13T17:40:14.932Z,8.97
2018-09-13T17:42:48.724Z,7.57
2018-09-13T17:45:22.992Z,7.70
2018-09-13T17:47:55.880Z,8.25
2018-09-13T17:50:28.898Z,7.70
2018-09-13T17:53:01.847Z,8.82
2018-09-13T17:55:35.782Z,7.90
2018-09-13T17:58:11.931Z,7.30
2018-09-13T18:00:45.080Z,8.47
2018-09-13T18:03:19.157Z,7.17
2018-09-13T18:05:52.275Z,8.20
2018-09-13T18:08:24.923Z,9.40
2018-09-13T18:10:58.278Z,8.73
2018-09-13T18:13:30.911Z,8.17
2018-09-13T18:16:03.645Z,9.67
2018-09-13T18:18:36.879Z,9.70
2018-09-13T18:21:09.827Z,9.63
2018-09-13T18:23:43.392Z,11.23
2018-09-13T18:26:16.182Z,10.53
2018-09-13T18:28:48.769Z,8.57
2018-09-13T18:31:23.037Z,12.87
2018-09-13T18:33:56.184Z,10.53
2018-09-13T18:36:29.833Z,12.00
2018-09-13T18:39:04.022Z,13.23
2018-09-13T18:41:40.022Z,11.77
2018-09-13T18:44:12.692Z,14.48
2018-09-13T18:46:47.685Z,12.83
2018-09-13T18:49:24.730Z,12.30
2018-09-13T18:51:59.889Z,15.07
2018-09-13T18:54:34.549Z,10.57
2018-09-13T18:57:08.577Z,12.37
2018-09-13T18:59:43.275Z,11.57
2018-09-13T19:02:20.063Z,13.20
2018-09-13T19:04:56.729Z,13.60
2018-09-13T19:07:30.872Z,13.50
2018-09-13T19:10:04.028Z,12.43
2018-09-13T19:12:38.604Z,14.43
2018-09-13T19:15:21.297Z,11.23
2018-09-13T19:17:56.136Z,13.00
2018-09-13T19:20:29.112Z,12.63
2018-09-13T19:23:01.819Z,13.33
2018-09-13T19:25:35.276Z,12.23
2018-09-13T19:28:12.290Z,13.33
2018-09-13T19:30:45.318Z,13.87
2018-09-13T19:33:17.936Z,13.53
2018-09-13T19:35:52.961Z,13.70
2018-09-13T19:38:27.290Z,18.17
2018-09-13T19:41:00.486Z,16.37
2018-09-13T19:43:36.376Z,13.53
2018-09-13T19:46:11.006Z,19.10
2018-09-13T19:48:48.284Z,16.50
2018-09-13T19:51:20.898Z,18.17
2018-09-13T19:53:57.366Z,17.50
2018-09-13T19:56:30.574Z,16.45
2018-09-13T19:59:05.519Z,18.67
2018-09-13T20:01:39.645Z,17.57
2018-09-13T20:04:14.363Z,17.97
2018-09-13T20:06:47.185Z,18.77
2018-09-13T20:09:21.710Z,18.47
2018-09-13T20:11:55.010Z,20.90
2018-09-13T20:14:29.034Z,23.57
2018-09-13T20:17:02.149Z,22.00
2018-09-13T20:19:34.824Z,21.43
2018-09-13T20:22:11.004Z,18.40
2018-09-13T20:24:47.980Z,21.62
2018-09-13T20:27:22.764Z,17.87
2018-09-13T20:30:00.725Z,18.33
2018-09-13T20:32:37.963Z,18.57
2018-09-13T20:35:13.679Z,18.13
2018-09-13T20:37:48.736Z,23.12
2018-09-13T20:40:26.352Z,25.27
2018-09-13T20:42:58.955Z,24.57
2018-09-13T20:45:32.090Z,20.17
2018-09-13T20:48:07.029Z,17.87
2018-09-13T20:50:39.663Z,22.17
2018-09-13T20:53:15.494Z,20.47
2018-09-13T20:55:48.011Z,18.97
2018-09-13T20:58:21.432Z,18.90
2018-09-13T21:00:55.473Z,18.13
2018-09-13T21:03:30.836Z,17.67
2018-09-13T21:06:05.966Z,19.20
2018-09-13T21:08:39.129Z,18.77
2018-09-13T21:11:13.954Z,25.83
2018-09-13T21:13:48.040Z,22.13
2018-09-13T21:16:22.262Z,19.23
2018-09-13T21:18:55.664Z,23.95
2018-09-13T21:21:29.787Z,22.77
2018-09-13T21:24:03.661Z,20.53
2018-09-13T21:26:36.231Z,20.40
2018-09-13T21:29:08.762Z,22.70
2018-09-13T21:31:41.878Z,29.07
2018-09-13T21:34:14.471Z,29.67
2018-09-13T21:36:47.077Z,29.20
2018-09-13T21:39:21.729Z,31.27
2018-09-13T21:41:55.021Z,30.73
2018-09-13T21:44:28.999Z,23.63
2018-09-13T21:47:04.808Z,21.57
2018-09-13T21:49:43.316Z,22.27
2018-09-13T21:52:16.713Z,22.80
2018-09-13T21:54:52.169Z,22.77
2018-09-13T21:57:25.637Z,19.40
2018-09-13T21:59:58.311Z,18.87
2018-09-13T22:02:33.447Z,24.27
2018-09-13T22:05:07.431Z,19.97
2018-09-13T22:07:40.134Z,22.37
2018-09-13T22:10:13.347Z,22.50
2018-09-13T22:12:46.032Z,27.73
2018-09-13T22:15:19.516Z,24.10
2018-09-13T22:17:52.390Z,21.73
2018-09-13T22:20:25.139Z,24.10
2018-09-13T22:22:57.724Z,25.55
2018-09-13T22:25:31.597Z,19.00
2018-09-13T22:28:04.262Z,24.90
2018-09-13T22:30:37.917Z,21.70
2018-09-13T22:33:18.783Z,26.03
2018-09-13T22:35:52.908Z,23.50
2018-09-13T22:38:25.512Z,27.93
2018-09-13T22:41:00.180Z,25.73
2018-09-13T22:43:40.645Z,23.93
2018-09-13T22:46:14.028Z,22.50
2018-09-13T22:48:47.679Z,22.87
2018-09-13T22:51:21.640Z,31.83
2018-09-13T22:53:55.007Z,44.22
2018-09-13T22:56:29.117Z,34.35
2018-09-13T22:59:02.556Z,28.87
2018-09-13T23:01:35.942Z,21.43
2018-09-13T23:04:16.430Z,25.90
2018-09-13T23:06:54.661Z,32.47
2018-09-13T23:13:53.227Z,25.43
2018-09-13T23:16:26.232Z,29.13
2018-09-13T23:19:01.028Z,25.97
2018-09-13T23:21:33.815Z,26.13
2018-09-13T23:24:06.389Z,24.00
2018-09-13T23:26:40.352Z,25.00
2018-09-13T23:29:13.071Z,25.97
2018-09-13T23:31:45.820Z,25.50
2018-09-13T23:34:18.768Z,26.10
2018-09-13T23:36:51.313Z,28.30
2018-09-13T23:39:24.813Z,26.60
2018-09-13T23:41:57.671Z,26.00
2018-09-13T23:44:31.093Z,22.67
2018-09-13T23:47:03.707Z,21.83
2018-09-13T23:49:36.724Z,26.37
2018-09-13T23:52:11.147Z,32.07
2018-09-13T23:54:44.500Z,29.37
2018-09-13T23:57:20.173Z,34.47
2018-09-13T23:59:53.480Z,31.53
